Time;durP1;ratioP1;P1;durP2;ratioP2;P2;SDS_P1;SDS_P2;PMS_P1;PMS_P2;Temp;Humidity;BMP_temperature;BMP_pressure;BME280_temperature;BME280_humidity;BME280_pressure;Samples;Min_cycle;Max_cycle;Signal;HPM_P1;HPM_P2
2021/01/07 00:01:53;;;;;;;1.57;1.40;;;2.50;98.00;;;;;;5069722;28;20464;-66
2021/01/07 00:04:20;;;;;;;1.83;1.20;;;2.50;98.00;;;;;;5071901;28;20947;-65
2021/01/07 00:06:47;;;;;;;2.00;1.50;;;2.50;98.00;;;;;;5069605;28;20461;-65
2021/01/07 00:09:14;;;;;;;1.10;1.00;;;2.60;98.00;;;;;;5072023;28;20503;-66
2021/01/07 00:11:42;;;;;;;1.10;1.00;;;2.70;98.00;;;;;;5069751;28;20950;-66
2021/01/07 00:14:09;;;;;;;1.10;1.00;;;2.90;98.00;;;;;;5071950;28;20468;-66
2021/01/07 00:16:36;;;;;;;1.10;0.90;;;2.70;98.00;;;;;;5070446;28;20456;-67
2021/01/07 00:19:04;;;;;;;1.30;1.10;;;2.70;98.00;;;;;;5071941;28;20825;-67
2021/01/07 00:21:31;;;;;;;1.10;1.00;;;2.80;98.00;;;;;;5071506;28;21023;-67
2021/01/07 00:23:58;;;;;;;1.10;1.10;;;2.90;98.00;;;;;;5069410;28;20464;-66
2021/01/07 00:26:24;;;;;;;2.43;1.30;;;2.80;98.00;;;;;;5071541;28;20476;-66
2021/01/07 00:28:51;;;;;;;3.30;2.77;;;2.80;98.00;;;;;;5069043;28;20460;-65
2021/01/07 00:31:18;;;;;;;1.10;1.00;;;2.70;98.00;;;;;;5071407;28;20950;-65
2021/01/07 00:33:45;;;;;;;1.13;1.10;;;2.80;98.00;;;;;;5068982;28;20525;-66
2021/01/07 00:36:11;;;;;;;1.30;1.20;;;2.80;98.00;;;;;;5071571;28;20460;-65
2021/01/07 00:38:38;;;;;;;1.20;1.10;;;2.70;98.00;;;;;;5069095;28;20461;-65
2021/01/07 00:41:05;;;;;;;1.10;0.93;;;2.80;98.00;;;;;;5071251;28;20457;-67
2021/01/07 00:43:33;;;;;;;1.10;1.00;;;2.90;98.00;;;;;;5069202;28;20822;-66
2021/01/07 00:45:59;;;;;;;1.63;1.53;;;2.80;98.00;;;;;;5071214;28;20823;-66
2021/01/07 00:48:26;;;;;;;1.10;0.90;;;2.80;98.00;;;;;;5069087;28;20461;-65
2021/01/07 00:50:52;;;;;;;1.10;1.00;;;2.90;98.00;;;;;;5071066;28;20459;-66
2021/01/07 00:53:19;;;;;;;2.20;1.10;;;3.00;98.00;;;;;;5069174;28;20453;-66
2021/01/07 00:55:45;;;;;;;2.27;1.43;;;3.00;98.00;;;;;;5071132;28;20472;-67
2021/01/07 00:58:12;;;;;;;2.77;1.93;;;3.00;98.00;;;;;;5069105;28;20487;-65
2021/01/07 01:00:39;;;;;;;1.10;1.10;;;3.00;98.00;;;;;;5070992;28;20541;-67
2021/01/07 01:03:06;;;;;;;1.20;1.10;;;2.80;98.00;;;;;;5069002;28;20469;-66
2021/01/07 01:05:32;;;;;;;1.27;1.10;;;2.70;98.00;;;;;;5071149;28;20461;-66
2021/01/07 01:07:59;;;;;;;1.40;1.30;;;2.60;98.00;;;;;;5069082;28;20518;-66
2021/01/07 01:10:26;;;;;;;1.10;1.00;;;2.60;98.00;;;;;;5070097;28;20539;-65
2021/01/07 01:12:52;;;;;;;1.67;1.40;;;2.50;98.00;;;;;;5069192;28;20471;-66
2021/01/07 01:15:20;;;;;;;1.10;1.10;;;2.50;98.00;;;;;;5071091;28;20461;-66
2021/01/07 01:17:49;;;;;;;1.10;1.00;;;2.60;98.00;;;;;;5069024;28;20478;-66
2021/01/07 01:20:16;;;;;;;1.10;0.90;;;2.70;98.00;;;;;;5070928;28;21409;-66
2021/01/07 01:22:44;;;;;;;1.10;1.00;;;2.70;98.00;;;;;;5068966;28;20613;-65
2021/01/07 01:25:12;;;;;;;1.30;1.10;;;2.70;98.00;;;;;;5070714;28;20453;-65
2021/01/07 01:27:42;;;;;;;1.67;1.60;;;2.70;98.00;;;;;;5068040;28;20456;-67
2021/01/07 01:30:10;;;;;;;1.37;1.17;;;2.60;98.00;;;;;;5070147;28;20465;-65
2021/01/07 01:32:38;;;;;;;1.20;1.20;;;2.60;98.00;;;;;;5070021;28;20459;-68
2021/01/07 01:35:07;;;;;;;2.43;1.93;;;2.50;98.00;;;;;;5074546;28;20464;-66
2021/01/07 01:37:35;;;;;;;1.10;0.90;;;2.50;98.00;;;;;;5072232;28;20496;-65
2021/01/07 01:40:01;;;;;;;1.10;1.00;;;2.50;98.00;;;;;;5074008;28;20487;-65
2021/01/07 01:42:31;;;;;;;1.23;1.03;;;2.50;98.00;;;;;;5071912;28;20459;-65
2021/01/07 01:44:57;;;;;;;1.20;1.13;;;2.60;98.00;;;;;;5072962;28;20474;-67
2021/01/07 01:47:24;;;;;;;1.17;1.10;;;2.70;98.00;;;;;;5072411;28;20453;-67
2021/01/07 01:49:53;;;;;;;1.10;1.03;;;2.70;98.00;;;;;;5074192;28;20452;-67
2021/01/07 01:52:22;;;;;;;1.77;1.67;;;2.60;98.00;;;;;;5071811;28;20471;-65
2021/01/07 01:54:49;;;;;;;1.10;0.90;;;2.50;98.00;;;;;;5074112;28;20452;-65
2021/01/07 01:57:18;;;;;;;2.00;1.53;;;2.40;98.00;;;;;;5072073;28;20467;-66
2021/01/07 01:59:45;;;;;;;1.10;1.00;;;2.50;98.00;;;;;;5073782;28;20499;-66
2021/01/07 02:02:12;;;;;;;1.20;1.10;;;2.50;98.00;;;;;;5071947;28;20467;-66
2021/01/07 02:04:39;;;;;;;1.30;1.20;;;2.60;98.00;;;;;;5074431;28;20468;-66
2021/01/07 02:07:10;;;;;;;1.40;1.20;;;2.60;98.00;;;;;;5071993;28;20457;-65
2021/01/07 02:09:37;;;;;;;1.40;1.37;;;2.60;98.00;;;;;;5073795;28;20456;-65
2021/01/07 02:12:07;;;;;;;1.53;1.50;;;2.70;98.00;;;;;;5071356;28;20461;-65
2021/01/07 02:14:33;;;;;;;1.20;1.13;;;2.70;98.00;;;;;;5074161;28;20510;-66
2021/01/07 02:17:00;;;;;;;1.10;0.90;;;2.60;98.00;;;;;;5071760;28;20457;-67
2021/01/07 02:19:26;;;;;;;1.10;0.90;;;2.50;98.00;;;;;;5073893;28;20530;-65
2021/01/07 02:21:54;;;;;;;1.20;1.13;;;2.40;98.00;;;;;;5071971;28;20834;-66
2021/01/07 02:24:20;;;;;;;1.10;1.00;;;2.40;98.00;;;;;;5074074;28;20480;-66
2021/01/07 02:26:47;;;;;;;1.10;1.00;;;2.30;98.00;;;;;;5073246;28;20518;-65
2021/01/07 02:29:14;;;;;;;1.10;1.00;;;2.30;98.00;;;;;;5072383;28;20455;-67
2021/01/07 02:31:40;;;;;;;1.40;1.10;;;2.30;98.00;;;;;;5073563;28;20455;-65
2021/01/07 02:34:06;;;;;;;1.10;0.90;;;2.40;98.00;;;;;;5071497;28;20504;-67
2021/01/07 02:36:33;;;;;;;1.83;1.50;;;2.40;98.00;;;;;;5073684;28;20535;-66
2021/01/07 02:39:00;;;;;;;1.10;1.00;;;2.50;98.00;;;;;;5070836;28;20484;-66
2021/01/07 02:41:27;;;;;;;1.10;1.00;;;2.60;98.00;;;;;;5073457;28;20861;-66
2021/01/07 02:43:54;;;;;;;1.97;1.20;;;2.70;98.00;;;;;;5069927;28;20468;-65
2021/01/07 02:46:20;;;;;;;2.13;1.37;;;2.70;98.00;;;;;;5072217;28;20824;-67
2021/01/07 02:48:47;;;;;;;1.10;0.90;;;2.70;98.00;;;;;;5070959;28;20754;-65
2021/01/07 02:51:13;;;;;;;1.10;0.90;;;2.70;98.00;;;;;;5073192;28;20801;-66
2021/01/07 02:53:40;;;;;;;1.10;1.00;;;2.90;98.00;;;;;;5070937;28;20460;-66
2021/01/07 02:56:07;;;;;;;1.10;1.00;;;2.80;98.00;;;;;;5072668;28;20464;-65
2021/01/07 02:58:34;;;;;;;1.10;0.90;;;2.80;98.00;;;;;;5070391;28;20551;-65
2021/01/07 03:01:01;;;;;;;1.20;1.07;;;2.70;98.00;;;;;;5072799;28;20483;-66
2021/01/07 03:03:27;;;;;;;1.10;1.00;;;2.70;98.00;;;;;;5071204;28;20935;-65
2021/01/07 03:05:54;;;;;;;1.30;1.10;;;2.70;98.00;;;;;;5071652;28;20448;-65
2021/01/07 03:08:22;;;;;;;1.40;1.33;;;2.60;98.00;;;;;;5070502;28;20453;-65
2021/01/07 03:10:49;;;;;;;2.00;1.93;;;2.60;98.00;;;;;;5072574;28;20519;-65
2021/01/07 03:13:20;;;;;;;1.67;1.63;;;2.60;98.00;;;;;;5070494;28;20479;-65
2021/01/07 03:15:46;;;;;;;1.20;1.10;;;2.50;98.00;;;;;;5072614;28;21027;-66
2021/01/07 03:18:14;;;;;;;1.40;1.20;;;2.30;98.00;;;;;;5070622;28;20468;-66
2021/01/07 03:20:40;;;;;;;1.10;1.00;;;2.20;98.00;;;;;;5072726;28;20488;-67
2021/01/07 03:23:07;;;;;;;1.10;0.90;;;2.20;98.00;;;;;;5070351;28;20467;-66
2021/01/07 03:25:33;;;;;;;1.10;1.00;;;2.10;98.00;;;;;;5072712;28;20818;-65
2021/01/07 03:28:00;;;;;;;1.40;1.10;;;2.10;98.00;;;;;;5070359;28;20471;-65
2021/01/07 03:30:27;;;;;;;1.20;1.10;;;2.00;98.00;;;;;;5072232;28;20495;-67
2021/01/07 03:32:54;;;;;;;1.20;1.10;;;2.10;98.00;;;;;;5070399;28;21094;-65
2021/01/07 03:35:21;;;;;;;1.10;1.00;;;2.10;98.00;;;;;;5072371;28;20461;-65
2021/01/07 03:37:49;;;;;;;1.10;1.00;;;2.20;98.00;;;;;;5070045;28;20485;-65
2021/01/07 03:40:15;;;;;;;1.10;1.00;;;2.30;98.00;;;;;;5072199;28;20491;-66
2021/01/07 03:42:42;;;;;;;1.10;1.00;;;2.50;98.00;;;;;;5070001;28;20461;-66
2021/01/07 03:45:09;;;;;;;1.20;1.10;;;2.50;98.00;;;;;;5070737;28;21150;-65
2021/01/07 03:47:37;;;;;;;1.93;1.30;;;2.50;98.00;;;;;;5070074;28;20460;-66
2021/01/07 03:50:04;;;;;;;1.10;0.90;;;2.60;98.00;;;;;;5070850;28;20455;-65
2021/01/07 03:52:31;;;;;;;1.30;1.10;;;2.50;98.00;;;;;;5069920;28;20469;-65
2021/01/07 03:54:57;;;;;;;1.60;1.50;;;2.50;98.00;;;;;;5071457;28;20471;-66
2021/01/07 03:57:24;;;;;;;1.10;0.90;;;2.70;98.00;;;;;;5069658;28;20457;-66
2021/01/07 03:59:50;;;;;;;1.97;1.57;;;2.70;98.00;;;;;;5071768;28;20488;-66
2021/01/07 04:02:16;;;;;;;1.10;1.00;;;2.70;98.00;;;;;;5069692;28;20493;-65
2021/01/07 04:04:44;;;;;;;1.10;1.00;;;2.60;98.00;;;;;;5071704;28;20457;-66
2021/01/07 04:07:10;;;;;;;1.93;1.63;;;2.60;98.00;;;;;;5069521;28;20468;-66
2021/01/07 04:09:37;;;;;;;1.10;1.00;;;2.60;98.00;;;;;;5071626;28;20460;-65
2021/01/07 04:12:04;;;;;;;1.10;1.10;;;2.60;98.00;;;;;;5069357;28;20848;-65
2021/01/07 04:14:30;;;;;;;1.10;0.90;;;2.60;98.00;;;;;;5071498;28;20460;-66
2021/01/07 04:16:57;;;;;;;1.20;1.10;;;2.60;98.00;;;;;;5071107;28;20570;-66
2021/01/07 04:19:23;;;;;;;1.10;0.90;;;2.70;98.00;;;;;;5070240;28;20480;-65
2021/01/07 04:21:51;;;;;;;1.10;1.00;;;2.70;98.00;;;;;;5071750;28;20864;-65
2021/01/07 04:24:17;;;;;;;1.10;1.00;;;2.60;98.00;;;;;;5069456;28;20468;-65
2021/01/07 04:26:45;;;;;;;1.20;1.10;;;2.60;98.00;;;;;;5070314;28;20547;-66
2021/01/07 04:29:12;;;;;;;2.30;1.57;;;2.60;98.00;;;;;;5069647;28;20464;-66
2021/01/07 04:31:38;;;;;;;1.57;1.33;;;2.60;98.00;;;;;;5071744;28;20478;-67
2021/01/07 04:34:06;;;;;;;1.10;0.90;;;2.70;98.00;;;;;;5069356;28;20467;-66
2021/01/07 04:36:32;;;;;;;1.20;1.03;;;2.70;98.00;;;;;;5071522;28;20935;-65
2021/01/07 04:39:00;;;;;;;1.30;1.10;;;2.80;98.00;;;;;;5069234;28;20465;-67
2021/01/07 04:41:26;;;;;;;1.10;1.00;;;2.80;98.00;;;;;;5071301;28;21018;-66
2021/01/07 04:43:56;;;;;;;1.60;1.10;;;2.70;98.00;;;;;;5069385;28;20456;-65
2021/01/07 04:46:23;;;;;;;1.50;1.40;;;2.70;98.00;;;;;;5071384;28;20457;-66
2021/01/07 04:48:51;;;;;;;1.10;1.00;;;2.70;98.00;;;;;;5069251;28;20465;-67
2021/01/07 04:51:17;;;;;;;1.10;0.97;;;2.80;98.00;;;;;;5071448;28;20522;-66
2021/01/07 04:53:45;;;;;;;1.40;1.27;;;2.90;98.00;;;;;;5069117;28;20460;-65
2021/01/07 04:56:12;;;;;;;1.20;1.10;;;2.90;98.00;;;;;;5071131;28;21000;-66
2021/01/07 04:58:39;;;;;;;1.70;1.17;;;2.80;98.00;;;;;;5068913;28;20896;-65
2021/01/07 05:01:06;;;;;;;1.70;1.20;;;2.80;98.00;;;;;;5070076;28;20484;-67
2021/01/07 05:03:34;;;;;;;1.10;1.00;;;2.70;98.00;;;;;;5068952;28;20464;-66
2021/01/07 05:06:01;;;;;;;6.10;2.43;;;2.70;98.00;;;;;;5070763;28;20492;-67
2021/01/07 05:08:29;;;;;;;1.10;1.03;;;2.70;98.00;;;;;;5072100;28;20860;-65
2021/01/07 05:10:57;;;;;;;1.10;1.10;;;2.50;98.00;;;;;;5075011;28;20950;-65
2021/01/07 05:13:25;;;;;;;1.10;0.90;;;2.50;98.00;;;;;;5072819;28;20457;-65
2021/01/07 05:15:52;;;;;;;1.10;1.00;;;2.60;98.00;;;;;;5075070;28;20456;-65
2021/01/07 05:18:20;;;;;;;1.10;1.10;;;2.50;98.00;;;;;;5072670;28;20464;-66
2021/01/07 05:20:47;;;;;;;1.93;1.43;;;2.70;98.00;;;;;;5074681;28;20490;-65
2021/01/07 05:23:15;;;;;;;1.10;0.90;;;2.60;98.00;;;;;;5072276;28;20483;-66
2021/01/07 05:25:42;;;;;;;1.10;0.90;;;2.60;98.00;;;;;;5074639;28;20917;-67
2021/01/07 05:28:12;;;;;;;1.20;1.10;;;2.70;98.00;;;;;;5072572;28;20455;-65
2021/01/07 05:30:39;;;;;;;1.10;0.90;;;2.70;98.00;;;;;;5074754;28;20464;-66
2021/01/07 05:33:10;;;;;;;1.10;1.00;;;2.70;98.00;;;;;;5072537;28;20515;-66
2021/01/07 05:35:37;;;;;;;1.10;1.00;;;2.50;98.00;;;;;;5073559;28;20811;-66
2021/01/07 05:38:08;;;;;;;1.10;1.00;;;2.60;98.00;;;;;;5072601;28;20459;-65
2021/01/07 05:40:35;;;;;;;1.67;1.20;;;2.60;98.00;;;;;;5073243;28;20966;-65
2021/01/07 05:43:11;;;;;;;1.50;1.10;;;2.50;98.00;;;;;;5072356;28;20452;-66
2021/01/07 05:45:40;;;;;;;1.10;0.90;;;2.60;98.00;;;;;;5074586;28;20596;-65
2021/01/07 05:48:15;;;;;;;1.10;0.90;;;2.70;98.00;;;;;;5072256;28;20916;-65
2021/01/07 05:50:42;;;;;;;1.10;1.00;;;2.80;98.00;;;;;;5074317;28;20954;-66
2021/01/07 05:53:09;;;;;;;1.20;1.10;;;2.90;98.00;;;;;;5071850;28;20460;-65
2021/01/07 05:55:37;;;;;;;1.17;0.97;;;3.00;98.00;;;;;;5074297;28;20478;-66
2021/01/07 05:58:04;;;;;;;1.10;1.00;;;2.90;98.00;;;;;;5072050;28;20466;-67
2021/01/07 06:00:32;;;;;;;1.10;1.00;;;2.90;98.00;;;;;;5074067;28;20485;-65
2021/01/07 06:03:02;;;;;;;1.10;1.00;;;3.00;98.00;;;;;;5072010;28;20464;-65
2021/01/07 06:05:29;;;;;;;1.50;1.50;;;2.90;98.00;;;;;;5072877;28;20466;-65
2021/01/07 06:07:57;;;;;;;1.10;1.00;;;2.70;98.00;;;;;;5071909;28;20510;-65
2021/01/07 06:10:24;;;;;;;1.40;1.23;;;2.70;98.00;;;;;;5073833;28;20457;-66
2021/01/07 06:12:52;;;;;;;1.10;0.90;;;2.50;98.00;;;;;;5071684;28;20488;-65
2021/01/07 06:15:20;;;;;;;1.17;1.03;;;2.50;98.00;;;;;;5073792;28;20978;-65
2021/01/07 06:17:47;;;;;;;1.10;1.10;;;2.50;98.00;;;;;;5070694;28;20460;-66
2021/01/07 06:20:16;;;;;;;1.60;1.33;;;2.30;98.00;;;;;;5073619;28;20834;-68
2021/01/07 06:22:48;;;;;;;1.10;1.00;;;2.20;98.00;;;;;;5071697;28;20460;-66
2021/01/07 06:25:16;;;;;;;1.10;0.90;;;2.10;98.00;;;;;;5073742;28;20501;-65
2021/01/07 06:27:45;;;;;;;1.10;1.00;;;2.40;98.00;;;;;;5071150;28;20930;-65
2021/01/07 06:30:35;;;;;;;1.10;1.00;;;2.50;98.00;;;;;;5073450;28;21012;-66
2021/01/07 06:33:07;;;;;;;1.70;1.33;;;2.50;98.00;;;;;;5071346;28;20992;-67
2021/01/07 06:35:43;;;;;;;1.33;1.20;;;2.40;98.00;;;;;;5073678;28;20464;-67
2021/01/07 06:38:24;;;;;;;2.37;2.10;;;2.40;98.00;;;;;;5071634;28;20470;-65
2021/01/07 06:40:51;;;;;;;1.10;1.00;;;2.40;98.00;;;;;;5073592;28;20491;-67
2021/01/07 06:43:19;;;;;;;1.50;1.20;;;2.40;98.00;;;;;;5071245;28;20460;-65
2021/01/07 06:45:53;;;;;;;1.10;1.00;;;2.40;98.00;;;;;;5072329;28;20464;-65
2021/01/07 06:48:30;;;;;;;1.20;1.10;;;2.40;98.00;;;;;;5071506;28;20457;-67
2021/01/07 06:50:59;;;;;;;1.23;1.10;;;2.50;98.00;;;;;;5073491;28;21039;-67
2021/01/07 06:53:26;;;;;;;1.10;1.00;;;2.50;98.00;;;;;;5071042;28;20455;-66
2021/01/07 06:56:17;;;;;;;1.20;1.13;;;2.60;98.00;;;;;;5073176;28;21002;-66
2021/01/07 06:58:45;;;;;;;1.47;1.10;;;2.70;98.00;;;;;;5070072;28;20862;-66
2021/01/07 07:01:14;;;;;;;1.70;1.67;;;2.70;98.00;;;;;;5072103;28;20484;-65
2021/01/07 07:03:48;;;;;;;1.10;1.10;;;2.70;98.00;;;;;;5070205;28;20456;-65
2021/01/07 07:06:26;;;;;;;4.60;1.33;;;2.70;98.00;;;;;;5072899;28;20459;-66
2021/01/07 07:08:52;;;;;;;1.10;1.00;;;2.70;98.00;;;;;;5070858;28;20828;-65
2021/01/07 07:11:33;;;;;;;1.50;1.20;;;2.70;98.00;;;;;;5072803;28;20467;-67
2021/01/07 07:14:03;;;;;;;1.20;1.10;;;2.90;98.00;;;;;;5070695;28;20468;-65
2021/01/07 07:16:35;;;;;;;1.77;1.40;;;2.90;98.00;;;;;;5072493;28;20456;-66
2021/01/07 07:19:01;;;;;;;1.10;1.00;;;2.90;98.00;;;;;;5070759;28;20514;-67
2021/01/07 07:21:30;;;;;;;2.63;1.47;;;2.90;98.00;;;;;;5072435;28;20484;-67
2021/01/07 07:24:09;;;;;;;1.10;1.00;;;2.80;98.00;;;;;;5070495;28;20506;-67
2021/01/07 07:26:37;;;;;;;1.10;1.00;;;2.80;98.00;;;;;;5072388;28;20460;-67
2021/01/07 07:29:07;;;;;;;1.30;1.20;;;2.80;98.00;;;;;;5069730;28;20823;-66
2021/01/07 07:31:42;;;;;;;8.00;1.77;;;2.70;98.00;;;;;;5071831;28;20464;-66
2021/01/07 07:34:09;;;;;;;1.93;1.53;;;2.60;98.00;;;;;;5070627;28;20605;-67
2021/01/07 07:36:37;;;;;;;1.40;1.20;;;2.60;98.00;;;;;;5072366;28;20879;-66
2021/01/07 07:39:05;;;;;;;1.10;1.10;;;2.50;98.00;;;;;;5070138;28;20447;-68
2021/01/07 07:41:40;;;;;;;2.13;1.33;;;2.50;98.00;;;;;;5072067;28;20460;-67
2021/01/07 07:44:07;;;;;;;1.10;1.00;;;2.50;98.00;;;;;;5070162;28;20474;-66
2021/01/07 07:46:36;;;;;;;1.50;1.10;;;2.50;98.00;;;;;;5072309;28;20463;-66
2021/01/07 07:49:04;;;;;;;1.30;1.10;;;2.40;98.00;;;;;;5070093;28;20460;-67
2021/01/07 07:51:30;;;;;;;1.10;1.00;;;2.40;98.00;;;;;;5072073;28;20457;-67
2021/01/07 07:54:07;;;;;;;1.10;1.00;;;2.50;98.00;;;;;;5070240;28;20830;-66
2021/01/07 07:56:34;;;;;;;1.50;1.40;;;2.60;98.00;;;;;;5072148;28;20511;-65
2021/01/07 07:59:01;;;;;;;1.83;1.50;;;2.70;98.00;;;;;;5069733;28;20843;-66
2021/01/07 08:01:42;;;;;;;1.10;1.00;;;2.60;98.00;;;;;;5071837;28;20487;-66
2021/01/07 08:04:12;;;;;;;1.10;1.00;;;2.70;98.00;;;;;;5069883;28;20455;-67
2021/01/07 08:06:39;;;;;;;1.10;0.90;;;2.70;98.00;;;;;;5071787;28;20452;-67
2021/01/07 08:09:08;;;;;;;1.30;1.10;;;2.60;98.00;;;;;;5069709;28;20463;-66
2021/01/07 08:11:42;;;;;;;1.37;1.20;;;2.60;98.00;;;;;;5071823;28;20482;-66
2021/01/07 08:14:13;;;;;;;1.20;1.07;;;2.80;98.00;;;;;;5069500;28;20464;-67
2021/01/07 08:16:39;;;;;;;1.30;1.20;;;2.90;98.00;;;;;;5071500;28;20460;-68
2021/01/07 08:19:23;;;;;;;2.20;1.30;;;2.90;98.00;;;;;;5068140;28;20517;-66
2021/01/07 08:21:51;;;;;;;1.30;1.10;;;2.80;98.00;;;;;;5071146;28;20463;-66
2021/01/07 08:24:21;;;;;;;1.10;1.10;;;2.80;98.00;;;;;;5068961;28;20827;-66
2021/01/07 08:27:13;;;;;;;1.67;1.27;;;2.90;98.00;;;;;;5070945;28;20535;-66
2021/01/07 08:29:43;;;;;;;1.20;1.10;;;2.90;98.00;;;;;;5068696;28;20451;-67
2021/01/07 08:32:19;;;;;;;1.83;1.67;;;3.00;98.00;;;;;;5070939;28;20526;-66
2021/01/07 08:34:46;;;;;;;1.40;1.03;;;3.10;98.00;;;;;;5069097;28;20467;-66
2021/01/07 08:37:17;;;;;;;1.20;1.10;;;3.20;98.00;;;;;;5071078;28;20926;-66
2021/01/07 08:39:44;;;;;;;1.20;1.17;;;3.00;98.00;;;;;;5068252;28;20484;-66
2021/01/07 08:42:14;;;;;;;1.20;1.10;;;2.90;98.00;;;;;;5069823;28;20932;-66
2021/01/07 08:44:40;;;;;;;1.63;1.57;;;2.90;98.00;;;;;;5068662;28;20452;-67
2021/01/07 08:47:21;;;;;;;1.63;1.53;;;2.90;98.00;;;;;;5070681;28;20469;-66
2021/01/07 08:50:03;;;;;;;1.67;1.43;;;2.80;98.00;;;;;;5068353;28;20456;-66
2021/01/07 08:52:30;;;;;;;1.37;1.37;;;2.80;98.00;;;;;;5067913;28;20502;-66
2021/01/07 08:55:00;;;;;;;4.40;1.50;;;2.80;98.00;;;;;;5070648;28;20959;-67
2021/01/07 08:57:28;;;;;;;1.63;1.57;;;2.80;98.00;;;;;;5069195;28;20455;-66
2021/01/07 08:59:56;;;;;;;1.30;1.20;;;2.80;98.00;;;;;;5069476;28;20483;-68
2021/01/07 09:02:22;;;;;;;1.20;1.10;;;2.90;98.00;;;;;;5070937;28;20464;-67
2021/01/07 09:04:54;;;;;;;1.20;1.10;;;3.00;98.00;;;;;;5067373;28;20486;-66
2021/01/07 09:07:21;;;;;;;4.07;1.40;;;3.00;98.00;;;;;;5070649;28;20491;-66
2021/01/07 09:09:49;;;;;;;1.10;0.90;;;2.90;98.00;;;;;;5068354;28;20456;-67
2021/01/07 09:12:19;;;;;;;1.77;1.23;;;2.90;98.00;;;;;;5070653;28;20509;-67
2021/01/07 09:14:47;;;;;;;1.10;1.00;;;3.00;98.00;;;;;;5068465;28;20495;-68
2021/01/07 09:17:15;;;;;;;1.33;1.27;;;3.10;98.00;;;;;;5069164;28;20560;-67
2021/01/07 09:19:41;;;;;;;5.27;1.57;;;3.10;98.00;;;;;;5067923;28;20491;-67
2021/01/07 09:22:08;;;;;;;1.63;1.40;;;3.20;98.00;;;;;;5070327;28;20452;-68
2021/01/07 09:24:36;;;;;;;1.30;1.10;;;3.30;98.00;;;;;;5066906;28;20856;-66
2021/01/07 09:27:07;;;;;;;1.23;1.23;;;3.30;98.00;;;;;;5070307;28;20464;-67
2021/01/07 09:29:35;;;;;;;2.57;1.43;;;3.30;98.00;;;;;;5068076;28;20463;-66
2021/01/07 09:32:02;;;;;;;1.70;1.37;;;3.30;98.00;;;;;;5070185;28;20463;-67
2021/01/07 09:34:31;;;;;;;2.50;2.00;;;3.20;98.00;;;;;;5067172;28;20809;-67
2021/01/07 09:37:07;;;;;;;1.57;1.30;;;3.10;98.00;;;;;;5070308;28;20464;-66
2021/01/07 09:39:34;;;;;;;1.10;1.00;;;3.10;98.00;;;;;;5068004;28;20483;-67
2021/01/07 09:42:01;;;;;;;1.47;1.47;;;3.00;98.00;;;;;;5069898;28;20457;-66
2021/01/07 09:44:28;;;;;;;1.10;1.00;;;3.10;98.00;;;;;;5068050;28;20532;-67
2021/01/07 09:46:56;;;;;;;1.13;1.00;;;3.20;98.00;;;;;;5069177;28;20491;-66
2021/01/07 09:49:23;;;;;;;5.00;1.90;;;3.20;98.00;;;;;;5067636;28;20851;-67
2021/01/07 09:51:50;;;;;;;1.20;1.00;;;3.20;98.00;;;;;;5070017;28;20456;-66
2021/01/07 09:54:18;;;;;;;1.17;1.10;;;3.10;98.00;;;;;;5070901;28;20460;-67
2021/01/07 09:56:45;;;;;;;1.37;1.00;;;3.10;98.00;;;;;;5072432;28;20523;-67
2021/01/07 09:59:12;;;;;;;1.10;1.00;;;3.10;98.00;;;;;;5071194;28;20472;-66
2021/01/07 10:01:38;;;;;;;1.20;1.10;;;3.20;98.00;;;;;;5073438;28;20480;-67
2021/01/07 10:04:08;;;;;;;1.60;1.20;;;3.30;98.00;;;;;;5071523;28;21049;-66
2021/01/07 10:06:34;;;;;;;3.83;1.60;;;3.20;98.00;;;;;;5072353;28;20449;-66
2021/01/07 10:09:01;;;;;;;1.80;1.47;;;3.10;98.00;;;;;;5071220;28;20461;-67
2021/01/07 10:11:28;;;;;;;1.90;1.70;;;3.00;98.00;;;;;;5073409;28;20471;-66
2021/01/07 10:13:54;;;;;;;2.50;1.20;;;3.10;98.00;;;;;;5071341;28;20549;-67
2021/01/07 10:16:21;;;;;;;2.80;1.83;;;3.10;98.00;;;;;;5073389;28;20451;-65
2021/01/07 10:18:49;;;;;;;1.10;1.00;;;3.10;98.00;;;;;;5070179;28;20468;-66
2021/01/07 10:21:22;;;;;;;1.10;1.00;;;3.00;98.00;;;;;;5072430;28;21225;-66
2021/01/07 10:23:50;;;;;;;1.10;1.00;;;3.00;98.00;;;;;;5071233;28;20491;-67
2021/01/07 10:26:17;;;;;;;1.70;1.63;;;3.00;98.00;;;;;;5073323;28;20452;-67
2021/01/07 10:28:45;;;;;;;1.50;1.27;;;3.00;98.00;;;;;;5071210;28;20544;-66
2021/01/07 10:31:14;;;;;;;1.10;1.00;;;3.00;98.00;;;;;;5073049;28;20449;-66
2021/01/07 10:33:42;;;;;;;1.20;1.00;;;3.10;98.00;;;;;;5071186;28;20471;-66
2021/01/07 10:36:09;;;;;;;1.70;1.23;;;3.10;98.00;;;;;;5072945;28;20460;-67
2021/01/07 10:38:38;;;;;;;1.20;1.20;;;3.10;98.00;;;;;;5071235;28;20912;-67
2021/01/07 10:41:07;;;;;;;1.50;1.30;;;3.10;98.00;;;;;;5072436;28;20491;-68
2021/01/07 10:43:34;;;;;;;1.20;1.10;;;3.10;98.00;;;;;;5071142;28;20461;-67
2021/01/07 10:46:01;;;;;;;1.60;1.30;;;3.10;98.00;;;;;;5071480;28;20470;-66
2021/01/07 10:48:30;;;;;;;1.63;1.30;;;3.10;98.00;;;;;;5070916;28;20457;-66
2021/01/07 10:51:01;;;;;;;1.10;1.10;;;3.20;98.00;;;;;;5072325;28;20464;-67
2021/01/07 10:54:05;;;;;;;1.20;1.00;;;3.30;98.00;;;;;;5070587;28;20461;-67
2021/01/07 10:56:45;;;;;;;1.50;1.40;;;3.30;98.00;;;;;;5072587;28;20787;-66
2021/01/07 10:59:28;;;;;;;2.80;1.20;;;3.30;98.00;;;;;;5070313;28;20821;-67
2021/01/07 11:02:13;;;;;;;1.30;1.30;;;3.40;98.00;;;;;;5072554;28;20469;-67
2021/01/07 11:05:12;;;;;;;1.10;0.93;;;3.50;98.00;;;;;;5069164;28;20457;-69
2021/01/07 11:08:07;;;;;;;1.20;0.90;;;3.50;98.00;;;;;;5071744;28;20467;-65
2021/01/07 11:10:37;;;;;;;1.20;1.13;;;3.60;98.00;;;;;;5071972;28;20483;-67
2021/01/07 11:13:07;;;;;;;1.70;1.60;;;3.60;98.00;;;;;;5069390;28;20457;-69
2021/01/07 11:15:35;;;;;;;1.37;1.33;;;3.60;98.00;;;;;;5072217;28;20526;-66
2021/01/07 11:18:08;;;;;;;1.20;1.10;;;3.50;98.00;;;;;;5070447;28;20463;-68
2021/01/07 11:20:37;;;;;;;1.20;1.10;;;3.70;98.00;;;;;;5071810;28;20495;-67
2021/01/07 11:23:05;;;;;;;1.20;1.10;;;3.70;98.00;;;;;;5070234;28;20895;-66
2021/01/07 11:25:32;;;;;;;1.23;1.03;;;3.80;98.00;;;;;;5072078;28;20463;-68
2021/01/07 11:28:01;;;;;;;1.40;1.20;;;3.90;98.00;;;;;;5070093;28;20464;-68
2021/01/07 11:30:28;;;;;;;2.07;1.20;;;3.80;98.00;;;;;;5071814;28;20445;-67
2021/01/07 11:32:55;;;;;;;1.10;0.90;;;3.90;98.00;;;;;;5069904;28;20947;-66
2021/01/07 11:35:22;;;;;;;1.20;1.00;;;3.90;98.00;;;;;;5071837;28;20457;-68
2021/01/07 11:37:59;;;;;;;1.30;1.30;;;3.90;98.00;;;;;;5069787;28;20943;-67
2021/01/07 11:40:32;;;;;;;1.20;1.17;;;3.90;98.00;;;;;;5071377;28;20494;-66
2021/01/07 11:43:36;;;;;;;1.20;1.00;;;4.00;98.00;;;;;;5070160;28;20456;-66
2021/01/07 11:46:04;;;;;;;1.50;1.30;;;4.10;98.00;;;;;;5071536;28;20463;-68
2021/01/07 11:48:32;;;;;;;1.20;1.10;;;4.20;98.00;;;;;;5068318;28;20514;-66
2021/01/07 11:51:03;;;;;;;1.20;1.00;;;4.30;98.00;;;;;;5071376;28;20465;-69
2021/01/07 11:53:30;;;;;;;2.33;1.97;;;4.30;98.00;;;;;;5069723;28;20460;-67
2021/01/07 11:55:59;;;;;;;1.20;1.00;;;4.40;98.00;;;;;;5071391;28;20461;-67
2021/01/07 11:58:28;;;;;;;1.20;1.00;;;4.30;98.00;;;;;;5069474;28;20473;-68
2021/01/07 12:00:56;;;;;;;1.20;1.10;;;4.40;98.00;;;;;;5071190;28;20849;-66
2021/01/07 12:03:28;;;;;;;1.80;1.20;;;4.50;98.00;;;;;;5069470;28;20455;-67
2021/01/07 12:06:00;;;;;;;1.73;1.20;;;4.50;98.00;;;;;;5070300;28;20479;-66
2021/01/07 12:09:03;;;;;;;1.30;1.10;;;4.40;98.00;;;;;;5068899;28;20453;-67
2021/01/07 12:11:36;;;;;;;3.00;1.80;;;4.40;98.00;;;;;;5071007;28;20957;-66
2021/01/07 12:14:11;;;;;;;1.20;1.10;;;4.60;98.00;;;;;;5069376;28;20465;-68
2021/01/07 12:16:46;;;;;;;1.10;0.93;;;4.50;98.00;;;;;;5070821;28;20542;-66
2021/01/07 12:19:15;;;;;;;1.20;1.00;;;4.50;98.00;;;;;;5068735;28;20456;-67
2021/01/07 12:21:42;;;;;;;1.20;1.00;;;4.50;98.00;;;;;;5070778;28;20850;-67
2021/01/07 12:24:11;;;;;;;1.83;1.27;;;4.60;98.00;;;;;;5069117;28;20448;-66
2021/01/07 12:26:39;;;;;;;1.90;1.57;;;4.70;98.00;;;;;;5070956;28;20464;-67
2021/01/07 12:29:08;;;;;;;1.20;1.00;;;4.70;98.00;;;;;;5068515;28;20492;-67
2021/01/07 12:31:37;;;;;;;1.10;1.00;;;4.70;98.00;;;;;;5070930;28;20454;-68
2021/01/07 12:34:12;;;;;;;4.70;1.87;;;4.70;98.00;;;;;;5069099;28;20462;-67
2021/01/07 12:36:46;;;;;;;1.80;1.40;;;4.60;98.00;;;;;;5070891;28;20467;-67
2021/01/07 12:39:27;;;;;;;1.20;1.10;;;4.60;98.00;;;;;;5068595;28;20461;-67
2021/01/07 12:41:56;;;;;;;1.30;1.30;;;4.70;98.00;;;;;;5070899;28;20503;-67
2021/01/07 12:44:27;;;;;;;1.73;1.50;;;4.70;98.00;;;;;;5068847;28;20462;-66
2021/01/07 12:46:56;;;;;;;1.20;1.07;;;4.60;98.00;;;;;;5071143;28;20461;-67
2021/01/07 12:49:23;;;;;;;1.33;1.23;;;4.60;98.00;;;;;;5068397;28;20943;-67
2021/01/07 12:51:52;;;;;;;2.10;1.50;;;4.60;98.00;;;;;;5070425;28;20456;-68
2021/01/07 12:54:19;;;;;;;1.50;1.40;;;4.60;98.00;;;;;;5067081;28;20457;-68
2021/01/07 12:56:59;;;;;;;1.57;1.20;;;4.50;98.00;;;;;;5070710;28;20457;-67
2021/01/07 12:59:31;;;;;;;1.20;1.00;;;4.60;98.00;;;;;;5068636;28;20464;-67
2021/01/07 13:02:11;;;;;;;1.20;1.10;;;4.50;98.00;;;;;;5070895;28;20489;-66
2021/01/07 13:04:46;;;;;;;1.50;1.50;;;4.50;98.00;;;;;;5069393;28;20514;-66
2021/01/07 13:07:14;;;;;;;1.17;1.00;;;4.40;98.00;;;;;;5070628;28;20448;-66
2021/01/07 13:09:43;;;;;;;1.30;1.20;;;4.50;98.00;;;;;;5068830;28;20460;-67